Back to top

Casper, WY weather

Natrona County International Airport, Casper, WY: 6/04/2020 03:53
Visibility10 statute milesclear sky
View 7-Day Forecast
Area Summary
Sky/CloudsSky Clear
Weather [last 24 hours]None [rain began 16:45 ended 16:48 ]
Pressure29.94 in.Hg (1014 hPa)
Dew Point37.9 °F (3.3 °C)
Relative Humidity40.8 %
Last 24-Hour Precip.Trace
Reading TimePrecipitation
6-hr ending 6/3@17:53Trace
Temperature62.1 °F (16.7 °C)red thermometer
Reading TimeMinimum to Maximum Temperature
6-hr ending 6/3@23:5354 °F to 79 °F (12.2 °C to 26.1 °C)
6-hr ending 6/3@17:5371.1 °F to 84.9 °F (21.7 °C to 29.4 °C)
6-hr ending 6/3@11:5350 °F to 81 °F (10 °C to 27.2 °C)
6-hr ending 6/3@05:5350 °F to 59 °F (10 °C to 15 °C)
24-hr ending 6/4@00:5350 °F to 84.9 °F (10 °C to 29.4 °C)
Wind11.5 MPH (10 KT) gusting to 20.7 MPH (18 KT)green arrow pointing 225 degrees
Wind FromSouthwest (220 Degrees)
Rolling 24-hr Peak Wind54.1 MPH (47 KT) on 6/3@16:43
Rolling 24-hr Peak Wind FromSouthwest (220 Degrees)
Twilight Begins04:51Sunshine Yesterday
Sunrise05:26N/A
Sunset20:43
Twilight Ends21:18
METARKCPR 040953Z AUTO 22010G18KT 10SM CLR 17/03 A2994 RMK AO2 SLP067 T01670033
Tags: